Time;durP1;ratioP1;P1;durP2;ratioP2;P2;SDS_P1;SDS_P2;PMS_P1;PMS_P2;Temp;Humidity;BMP_temperature;BMP_pressure;BME280_temperature;BME280_humidity;BME280_pressure;Samples;Min_cycle;Max_cycle;Signal;HPM_P1;HPM_P2
2022/04/22 00:00:44;;;;;;;7.30;2.90;;;;;;;13.26;48.00;100882.97;5031333;27;98897;-69
2022/04/22 00:03:10;;;;;;;7.05;2.88;;;;;;;13.11;48.42;100882.69;5025122;27;99030;-69
2022/04/22 00:05:37;;;;;;;6.95;3.03;;;;;;;13.40;47.97;100875.25;5023726;27;96843;-70
2022/04/22 00:08:06;;;;;;;8.10;2.63;;;;;;;13.70;47.50;100870.34;5025594;28;98712;-70
2022/04/22 00:10:33;;;;;;;13.07;2.70;;;;;;;13.69;47.17;100865.94;5030049;28;98986;-68
2022/04/22 00:13:00;;;;;;;22.77;4.38;;;;;;;13.75;46.99;100866.53;5030604;27;99683;-68
2022/04/22 00:15:27;;;;;;;6.60;2.75;;;;;;;13.95;46.67;100865.59;5026304;27;96900;-71
2022/04/22 00:17:53;;;;;;;6.82;2.60;;;;;;;13.62;47.29;100865.38;5027511;27;96903;-69
2022/04/22 00:20:30;;;;;;;8.50;2.83;;;;;;;13.16;48.57;100872.75;5028466;27;97926;-71
2022/04/22 00:22:56;;;;;;;8.43;2.40;;;;;;;13.45;47.67;100873.25;5029946;27;99581;-71
2022/04/22 00:25:24;;;;;;;11.40;3.35;;;;;;;13.54;47.61;100867.50;5025734;27;97049;-72
2022/04/22 00:27:50;;;;;;;13.38;3.25;;;;;;;13.63;47.18;100869.75;5027846;27;98695;-71
2022/04/22 00:30:17;;;;;;;11.55;3.22;;;;;;;13.05;48.74;100872.34;5033002;27;96864;-71
2022/04/22 00:32:43;;;;;;;9.07;3.00;;;;;;;13.51;47.79;100859.72;5030019;27;99520;-74
2022/04/22 00:35:10;;;;;;;7.35;3.08;;;;;;;13.25;48.30;100865.31;5026138;27;96964;-71
2022/04/22 00:37:37;;;;;;;11.88;3.45;;;;;;;13.00;49.01;100857.53;5032506;27;97181;-72
2022/04/22 00:40:04;;;;;;;14.10;3.50;;;;;;;13.38;48.08;100853.22;5027638;27;98900;-71
2022/04/22 00:42:36;;;;;;;9.68;3.20;;;;;;;13.68;47.27;100848.28;5027393;27;97716;-71
2022/04/22 00:45:03;;;;;;;14.32;4.10;;;;;;;13.36;47.95;100852.44;5031790;27;97694;-71
2022/04/22 00:47:30;;;;;;;7.82;3.40;;;;;;;13.72;47.08;100853.38;5035299;27;97370;-72
2022/04/22 00:49:57;;;;;;;9.43;4.40;;;;;;;13.44;47.71;100850.31;5032527;27;98630;-71
2022/04/22 00:52:24;;;;;;;8.82;3.88;;;;;;;13.28;48.23;100852.78;5024982;27;98758;-71
2022/04/22 00:54:51;;;;;;;9.35;3.83;;;;;;;13.11;48.73;100856.16;5034011;27;96883;-72
2022/04/22 00:57:19;;;;;;;12.30;5.03;;;;;;;12.63;49.71;100845.00;5028350;27;96873;-73
2022/04/22 00:59:47;;;;;;;12.90;4.60;;;;;;;12.41;50.53;100849.47;5030077;27;102164;-72
2022/04/22 01:02:16;;;;;;;12.07;4.30;;;;;;;12.16;51.57;100842.53;5027489;27;100869;-71
2022/04/22 01:10:12;;;;;;;14.63;4.30;;;;;;;12.47;50.83;100836.00;5021969;27;97129;-72
2022/04/22 01:12:38;;;;;;;12.80;4.82;;;;;;;12.45;51.14;100837.81;5029900;27;98476;-71
2022/04/22 01:15:07;;;;;;;11.85;4.63;;;;;;;12.37;51.44;100827.53;5026820;27;96901;-73
2022/04/22 01:17:33;;;;;;;13.98;4.93;;;;;;;12.78;49.85;100833.75;5027369;27;97151;-73
2022/04/22 01:20:00;;;;;;;12.07;4.78;;;;;;;13.03;49.44;100829.09;5030261;27;98915;-71
2022/04/22 01:22:56;;;;;;;12.77;4.82;;;;;;;13.18;48.80;100832.03;5027258;27;98801;-70
2022/04/22 01:25:25;;;;;;;9.10;4.47;;;;;;;13.06;48.83;100844.84;5030473;27;96861;-73
2022/04/22 01:27:52;;;;;;;12.23;4.15;;;;;;;12.92;49.40;100841.97;5027453;27;96944;-72
2022/04/22 01:30:21;;;;;;;13.88;4.97;;;;;;;12.51;50.80;100840.22;5024700;27;99456;-72
2022/04/22 01:32:49;;;;;;;15.65;4.90;;;;;;;12.44;51.00;100841.41;5029253;27;99058;-72
2022/04/22 01:35:15;;;;;;;11.52;4.60;;;;;;;12.54;50.79;100840.06;5024670;27;99350;-72
2022/04/22 01:37:43;;;;;;;18.85;4.88;;;;;;;11.91;52.31;100834.72;5023837;27;96979;-73
2022/04/22 01:40:11;;;;;;;12.35;4.90;;;;;;;12.21;52.04;100835.25;5025572;27;102357;-72
2022/04/22 01:42:37;;;;;;;12.38;5.22;;;;;;;12.33;51.46;100836.56;5022615;27;102073;-73
2022/04/22 01:45:05;;;;;;;11.45;5.03;;;;;;;11.68;53.18;100817.97;5024202;27;97820;-72
2022/04/22 01:47:32;;;;;;;12.80;4.88;;;;;;;11.63;53.27;100820.78;5026195;27;98992;-72
2022/04/22 01:49:59;;;;;;;11.10;5.15;;;;;;;11.92;52.78;100822.34;5027552;27;101987;-72
2022/04/22 01:52:26;;;;;;;11.95;4.90;;;;;;;11.53;53.68;100820.28;5025156;27;98924;-72
2022/04/22 01:54:55;;;;;;;14.18;5.35;;;;;;;10.90;55.73;100822.63;5024717;27;98910;-73
2022/04/22 01:57:22;;;;;;;13.30;5.32;;;;;;;10.85;56.08;100820.16;5027951;27;97764;-72
2022/04/22 01:59:49;;;;;;;14.30;5.43;;;;;;;10.88;56.25;100820.06;5019310;27;101327;-73
2022/04/22 02:02:17;;;;;;;12.18;5.32;;;;;;;11.47;54.67;100817.88;5027262;27;100375;-73
2022/04/22 02:04:44;;;;;;;12.50;5.03;;;;;;;11.30;54.57;100804.41;5025291;27;97147;-72
2022/04/22 02:07:11;;;;;;;18.83;6.32;;;;;;;11.34;54.64;100803.38;5027875;27;97303;-72
2022/04/22 02:09:37;;;;;;;17.08;7.05;;;;;;;11.92;53.17;100790.56;5022665;27;101393;-73
2022/04/22 02:12:07;;;;;;;10.52;4.82;;;;;;;11.92;53.18;100793.19;5024711;27;98798;-71
2022/04/22 02:14:34;;;;;;;13.75;5.57;;;;;;;11.53;54.30;100783.22;5024563;27;97151;-72
2022/04/22 02:17:00;;;;;;;13.43;5.03;;;;;;;11.90;53.08;100795.03;5026897;27;96853;-72
2022/04/22 02:19:27;;;;;;;15.63;5.97;;;;;;;11.98;52.65;100787.66;5028118;27;99217;-72
2022/04/22 02:21:53;;;;;;;12.35;5.10;;;;;;;12.11;51.97;100788.88;5024583;27;101602;-73
2022/04/22 02:24:20;;;;;;;15.90;6.10;;;;;;;11.35;54.58;100785.72;5020648;27;97040;-71
2022/04/22 02:29:32;;;;;;;11.93;5.47;;;;;;;11.99;53.01;100784.09;5016139;27;97179;-72
2022/04/22 02:31:58;;;;;;;13.75;5.60;;;;;;;12.30;51.60;100784.53;5028384;27;99179;-71
2022/04/22 02:34:25;;;;;;;12.13;5.78;;;;;;;12.62;50.76;100785.81;5025518;27;96883;-73
2022/04/22 02:36:52;;;;;;;16.80;5.55;;;;;;;12.48;51.08;100785.53;5025047;27;98979;-73
2022/04/22 02:39:20;;;;;;;14.55;5.68;;;;;;;12.02;52.16;100785.72;5026739;27;98214;-72
2022/04/22 02:47:15;;;;;;;18.33;6.18;;;;;;;11.07;55.60;100772.66;5021666;27;96950;-72
2022/04/22 02:49:44;;;;;;;14.27;6.18;;;;;;;11.20;55.00;100776.59;5025476;27;99800;-71
2022/04/22 02:52:11;;;;;;;14.93;6.10;;;;;;;11.38;54.76;100767.94;5028066;27;98785;-70
2022/04/22 02:54:37;;;;;;;13.32;5.68;;;;;;;11.83;53.56;100772.38;5023407;27;97175;-72
2022/04/22 02:57:05;;;;;;;14.95;5.70;;;;;;;12.15;52.34;100768.41;5020812;27;97831;-72
2022/04/22 02:59:33;;;;;;;13.35;5.70;;;;;;;11.91;52.66;100776.44;5028156;27;101415;-72
2022/04/22 03:02:00;;;;;;;10.70;5.57;;;;;;;11.63;53.93;100764.34;5022458;27;98800;-73
2022/04/22 03:04:27;;;;;;;16.00;5.85;;;;;;;11.42;54.27;100766.06;5019828;27;98027;-72
2022/04/22 03:06:55;;;;;;;15.32;5.35;;;;;;;11.32;54.78;100767.31;5026319;27;97636;-72
2022/04/22 03:09:21;;;;;;;13.32;5.43;;;;;;;11.23;54.93;100772.94;5024757;27;102296;-71
2022/04/22 03:11:48;;;;;;;13.55;5.60;;;;;;;11.00;55.57;100768.53;5021289;27;99005;-72
2022/04/22 03:14:14;;;;;;;17.52;6.55;;;;;;;11.24;55.10;100764.94;5026781;27;96792;-71
2022/04/22 03:16:42;;;;;;;14.85;6.20;;;;;;;11.01;55.57;100759.69;5022615;27;97235;-71
2022/04/22 03:19:09;;;;;;;15.70;6.60;;;;;;;10.52;57.31;100760.56;5026485;27;98859;-71
2022/04/22 03:21:35;;;;;;;17.25;5.93;;;;;;;10.36;57.72;100760.25;5019301;27;101410;-70
2022/04/22 03:24:02;;;;;;;16.88;6.53;;;;;;;10.65;57.06;100761.84;5026561;27;96845;-72
2022/04/22 03:26:28;;;;;;;18.48;5.88;;;;;;;10.94;56.44;100758.19;5024363;27;96862;-71
2022/04/22 03:28:55;;;;;;;15.68;6.47;;;;;;;11.17;55.70;100744.94;5023294;27;99845;-70
2022/04/22 03:31:21;;;;;;;17.52;6.07;;;;;;;11.23;54.89;100747.34;5025830;27;98869;-73
2022/04/22 03:33:49;;;;;;;18.45;6.95;;;;;;;10.93;55.49;100752.03;5023378;27;98131;-71
2022/04/22 03:36:15;;;;;;;14.68;6.10;;;;;;;11.24;55.26;100751.72;5024615;27;98396;-72
2022/04/22 03:38:43;;;;;;;14.40;6.55;;;;;;;11.20;54.95;100744.84;5024851;27;99411;-74
2022/04/22 03:41:10;;;;;;;17.23;6.55;;;;;;;10.46;56.74;100750.22;5025623;27;102037;-72
2022/04/22 03:43:37;;;;;;;15.73;6.45;;;;;;;10.41;57.13;100742.47;5021493;27;96772;-73
2022/04/22 03:46:04;;;;;;;16.50;6.72;;;;;;;10.88;56.49;100747.81;5020761;27;96763;-72
2022/04/22 03:48:30;;;;;;;13.30;6.25;;;;;;;10.59;57.06;100743.56;5026054;27;98390;-73
2022/04/22 03:50:58;;;;;;;20.77;6.80;;;;;;;11.02;55.69;100737.59;5026694;27;98712;-73
2022/04/22 03:53:28;;;;;;;18.00;6.10;;;;;;;11.37;54.46;100744.19;5023914;27;96901;-73
2022/04/22 03:55:54;;;;;;;15.85;6.90;;;;;;;11.05;55.54;100742.75;5027012;27;98506;-73
2022/04/22 03:58:20;;;;;;;14.50;6.25;;;;;;;11.03;55.48;100736.66;5028151;27;99356;-73
2022/04/22 04:00:48;;;;;;;18.92;6.82;;;;;;;10.46;57.49;100737.00;5032652;27;98776;-73
2022/04/22 04:03:16;;;;;;;19.55;7.10;;;;;;;10.71;56.60;100737.84;5027354;27;96802;-72
2022/04/22 04:05:46;;;;;;;17.15;7.07;;;;;;;10.61;56.86;100742.63;5021861;27;97132;-72
2022/04/22 04:08:14;;;;;;;21.20;6.70;;;;;;;10.70;56.82;100751.97;5029512;27;99548;-72
2022/04/22 04:16:11;;;;;;;18.80;7.40;;;;;;;10.52;56.97;100750.84;4994653;27;98805;-73
2022/04/22 04:18:39;;;;;;;18.50;7.40;;;;;;;11.04;55.76;100747.19;5028596;27;99184;-73
2022/04/22 04:23:55;;;;;;;15.77;8.13;;;;;;;10.74;56.85;100735.97;5027935;27;97136;-72
2022/04/22 04:26:24;;;;;;;14.55;6.68;;;;;;;11.07;55.46;100733.00;5029149;27;98424;-73
2022/04/22 04:28:52;;;;;;;22.83;8.07;;;;;;;10.75;56.42;100740.34;5030273;27;97604;-73
2022/04/22 04:31:19;;;;;;;14.60;6.30;;;;;;;10.47;57.50;100741.38;5028395;27;99319;-73
2022/04/22 04:33:46;;;;;;;17.63;6.95;;;;;;;11.02;55.98;100746.41;5030984;27;97562;-72
2022/04/22 04:36:13;;;;;;;18.50;6.93;;;;;;;11.19;55.60;100762.50;5023732;27;96881;-74
2022/04/22 04:38:42;;;;;;;20.17;7.95;;;;;;;10.84;55.91;100754.13;5023765;27;102189;-73
2022/04/22 04:41:12;;;;;;;17.10;7.13;;;;;;;11.53;53.94;100746.19;5025615;27;101316;-72
2022/04/22 04:43:40;;;;;;;24.95;6.97;;;;;;;11.05;55.37;100750.69;5030508;27;97700;-71
2022/04/22 04:46:07;;;;;;;19.10;7.13;;;;;;;11.17;54.96;100744.94;5030215;27;97286;-71
2022/04/22 04:48:35;;;;;;;16.83;7.75;;;;;;;11.40;54.93;100744.94;5024684;27;99119;-69
2022/04/22 04:51:02;;;;;;;12.68;7.05;;;;;;;11.06;54.78;100739.22;5028907;27;98929;-70
2022/04/22 04:53:29;;;;;;;20.50;7.53;;;;;;;11.34;54.36;100737.25;5028651;27;97519;-70
2022/04/22 04:55:55;;;;;;;17.02;7.38;;;;;;;10.87;55.82;100751.38;5028962;27;98801;-69
2022/04/22 04:58:23;;;;;;;18.52;7.85;;;;;;;11.51;53.69;100749.81;5023946;27;97960;-70
2022/04/22 05:00:49;;;;;;;14.60;7.45;;;;;;;11.07;55.61;100751.50;5026754;27;99221;-70
2022/04/22 05:03:16;;;;;;;22.63;7.65;;;;;;;11.65;53.40;100757.19;5025203;27;97623;-70
2022/04/22 05:05:43;;;;;;;18.15;7.10;;;;;;;11.67;53.52;100744.78;5027087;27;96895;-73
2022/04/22 05:08:09;;;;;;;19.92;7.70;;;;;;;11.26;54.02;100757.84;5024708;27;101271;-72
2022/04/22 05:10:37;;;;;;;25.67;8.40;;;;;;;12.07;52.18;100763.47;5028285;27;100812;-72
2022/04/22 05:13:04;;;;;;;18.52;7.00;;;;;;;11.56;53.20;100754.00;5029801;27;97582;-72
2022/04/22 05:15:33;;;;;;;26.15;8.13;;;;;;;11.33;54.51;100754.03;5029135;27;98526;-72
2022/04/22 05:18:02;;;;;;;17.20;7.38;;;;;;;11.45;54.18;100757.97;5027845;27;99139;-73
2022/04/22 05:20:29;;;;;;;18.27;8.15;;;;;;;12.15;52.84;100757.81;5028971;27;99532;-73
2022/04/22 05:22:58;;;;;;;13.48;6.78;;;;;;;12.42;51.11;100758.44;5027440;27;98346;-72
2022/04/22 05:25:25;;;;;;;17.65;7.55;;;;;;;11.98;52.99;100755.88;5027636;27;96981;-74
2022/04/22 05:27:51;;;;;;;13.20;6.53;;;;;;;12.86;50.29;100757.38;5028117;27;99022;-69
2022/04/22 05:33:06;;;;;;;16.02;6.82;;;;;;;12.48;50.74;100743.13;5030378;27;97283;-72
2022/04/22 05:35:33;;;;;;;18.77;7.95;;;;;;;12.54;51.06;100744.66;5026795;27;98765;-70
2022/04/22 05:38:01;;;;;;;14.15;6.57;;;;;;;13.02;49.74;100742.47;5026763;27;100862;-71
2022/04/22 05:40:30;;;;;;;16.13;7.13;;;;;;;12.85;49.90;100739.75;5026481;27;99732;-72
2022/04/22 05:42:58;;;;;;;15.20;7.55;;;;;;;12.96;49.95;100744.56;5025304;27;97543;-72
2022/04/22 05:45:26;;;;;;;15.73;7.18;;;;;;;13.44;48.78;100742.34;5020490;27;99097;-74
2022/04/22 05:47:53;;;;;;;17.42;7.55;;;;;;;12.79;50.10;100742.69;5026149;27;99469;-74
2022/04/22 05:50:22;;;;;;;27.27;11.60;;;;;;;13.56;48.54;100732.91;5021324;27;102827;-74
2022/04/22 05:52:50;;;;;;;20.98;7.28;;;;;;;13.55;48.35;100733.84;5027109;27;98160;-73
2022/04/22 05:55:17;;;;;;;18.75;8.48;;;;;;;12.45;51.04;100739.78;5024387;27;97023;-73
2022/04/22 05:57:45;;;;;;;16.30;7.20;;;;;;;12.13;52.42;100742.00;5022594;27;98573;-73
2022/04/22 06:00:14;;;;;;;25.92;7.35;;;;;;;11.95;53.46;100735.66;5027244;27;101949;-73
2022/04/22 06:02:41;;;;;;;17.40;8.30;;;;;;;12.11;52.65;100737.69;5027563;27;97122;-74
2022/04/22 06:05:09;;;;;;;15.25;7.13;;;;;;;12.34;52.47;100737.56;5026841;27;96972;-74
2022/04/22 06:07:37;;;;;;;15.57;7.72;;;;;;;11.95;53.30;100730.38;5021434;27;99359;-73
2022/04/22 06:12:48;;;;;;;16.60;7.53;;;;;;;12.75;51.29;100739.28;5016859;27;96874;-74
2022/04/22 06:15:15;;;;;;;19.13;7.72;;;;;;;12.27;52.45;100736.97;5022735;27;97137;-73
2022/04/22 06:17:41;;;;;;;17.27;7.20;;;;;;;12.96;51.25;100724.19;5019931;27;106539;-72
2022/04/22 06:20:09;;;;;;;18.33;7.72;;;;;;;13.06;50.53;100719.34;5021994;27;99145;-74
2022/04/22 06:22:38;;;;;;;31.98;7.95;;;;;;;13.59;49.06;100722.13;5019370;27;96834;-74
2022/04/22 06:25:06;;;;;;;14.10;6.55;;;;;;;13.66;48.61;100715.59;5024681;27;97468;-72
2022/04/22 06:27:35;;;;;;;18.48;7.93;;;;;;;13.67;48.43;100714.66;5022748;27;99619;-73
2022/04/22 06:30:06;;;;;;;16.02;7.10;;;;;;;14.12;47.33;100711.53;5019331;27;99345;-74
2022/04/22 06:32:33;;;;;;;24.42;7.93;;;;;;;14.30;46.81;100720.38;5019714;27;98780;-72
2022/04/22 06:35:00;;;;;;;17.95;7.30;;;;;;;13.70;47.95;100730.47;5021957;27;98269;-70
2022/04/22 06:37:28;;;;;;;15.07;7.03;;;;;;;13.65;48.16;100744.91;5023892;27;99029;-70
2022/04/22 06:48:11;;;;;;;15.95;7.38;;;;;;;13.58;47.95;100749.66;5020419;27;97188;-71
2022/04/22 06:50:37;;;;;;;15.10;6.88;;;;;;;13.04;49.31;100748.59;5023784;27;101320;-70
2022/04/22 06:53:04;;;;;;;14.75;6.85;;;;;;;12.84;50.14;100745.97;5021172;27;98701;-70
2022/04/22 06:55:34;;;;;;;19.60;6.93;;;;;;;12.82;50.03;100755.78;5016850;27;97850;-70
2022/04/22 06:58:01;;;;;;;16.63;6.70;;;;;;;13.22;49.25;100754.00;5018522;27;97674;-70
2022/04/22 07:00:28;;;;;;;18.67;7.25;;;;;;;13.20;49.38;100750.56;5021893;27;98705;-69
2022/04/22 07:02:55;;;;;;;17.58;6.65;;;;;;;13.20;49.54;100747.91;5019753;27;98510;-69
2022/04/22 07:05:23;;;;;;;21.88;6.80;;;;;;;13.69;48.50;100747.31;5018866;27;97239;-69
2022/04/22 07:07:49;;;;;;;14.55;6.40;;;;;;;13.11;49.68;100747.38;5016725;27;99378;-69
2022/04/22 07:10:17;;;;;;;14.05;6.93;;;;;;;13.81;48.18;100741.41;5024613;27;99596;-70
2022/04/22 07:12:45;;;;;;;16.08;6.20;;;;;;;13.63;48.22;100739.66;5023109;27;97711;-71
2022/04/22 07:15:12;;;;;;;15.50;7.18;;;;;;;13.77;48.37;100745.16;5022795;27;96979;-70
2022/04/22 07:17:41;;;;;;;15.75;6.82;;;;;;;13.61;48.18;100757.44;5021404;28;99188;-70
2022/04/22 07:20:10;;;;;;;14.68;6.65;;;;;;;14.00;47.19;100744.03;5017693;27;99294;-70
2022/04/22 07:22:37;;;;;;;14.88;7.10;;;;;;;13.45;48.62;100743.19;5016365;27;97138;-72
2022/04/22 07:25:04;;;;;;;17.15;6.93;;;;;;;13.29;49.01;100747.50;5019621;27;97537;-71
2022/04/22 07:27:34;;;;;;;12.43;6.75;;;;;;;13.80;47.40;100752.09;5020379;27;99359;-72
2022/04/22 07:30:02;;;;;;;20.55;7.47;;;;;;;14.70;45.56;100743.97;5021668;27;98810;-72
2022/04/22 07:32:29;;;;;;;20.90;6.97;;;;;;;14.57;45.58;100750.88;5026849;27;97340;-71
2022/04/22 07:34:56;;;;;;;12.85;6.07;;;;;;;14.72;44.94;100746.56;5024303;27;98607;-70
2022/04/22 07:37:24;;;;;;;11.65;6.85;;;;;;;14.94;44.92;100747.16;5026459;27;99145;-72
2022/04/22 07:39:51;;;;;;;15.02;6.78;;;;;;;14.86;44.81;100757.34;5024672;27;99551;-72
2022/04/22 07:42:21;;;;;;;12.18;6.47;;;;;;;14.19;46.19;100750.13;5029689;27;96878;-73
2022/04/22 07:47:37;;;;;;;12.50;7.38;;;;;;;14.12;46.83;100746.06;5027320;27;98581;-72
2022/04/22 07:50:06;;;;;;;20.42;7.65;;;;;;;14.70;45.85;100741.31;5029050;27;100587;-70
2022/04/22 07:52:34;;;;;;;14.18;6.38;;;;;;;14.82;45.52;100739.81;5029122;28;97283;-70
2022/04/22 07:55:01;;;;;;;13.60;7.00;;;;;;;15.20;44.67;100735.09;5027770;27;96902;-71
2022/04/22 07:57:28;;;;;;;17.05;7.22;;;;;;;14.88;45.43;100742.16;5019761;27;101931;-73
2022/04/22 07:59:55;;;;;;;17.20;7.63;;;;;;;14.85;45.57;100749.41;5028733;27;100907;-73
2022/04/22 08:02:22;;;;;;;15.70;7.85;;;;;;;14.21;47.43;100748.28;5019016;27;104006;-73
2022/04/22 08:04:50;;;;;;;11.85;7.70;;;;;;;13.90;48.55;100759.56;5020883;27;98984;-74
2022/04/22 08:07:18;;;;;;;18.95;8.75;;;;;;;14.23;48.05;100757.03;5022830;27;98065;-71
2022/04/22 08:09:46;;;;;;;17.92;8.68;;;;;;;14.73;47.02;100753.59;5020229;27;98850;-71
2022/04/22 08:12:13;;;;;;;17.13;8.25;;;;;;;14.94;46.64;100757.78;5018374;27;99071;-71
2022/04/22 08:14:39;;;;;;;18.95;9.35;;;;;;;15.56;44.92;100745.53;5023541;28;97085;-71
2022/04/22 08:17:08;;;;;;;23.20;9.52;;;;;;;15.56;44.94;100753.53;5027561;27;99118;-71
2022/04/22 08:19:34;;;;;;;14.82;9.07;;;;;;;15.13;46.45;100749.69;5024894;27;99500;-75
2022/04/22 08:22:02;;;;;;;18.17;10.05;;;;;;;15.58;45.94;100750.78;5025886;27;97632;-71
2022/04/22 08:24:31;;;;;;;17.77;9.52;;;;;;;16.02;45.40;100749.09;5021638;27;97621;-71
2022/04/22 08:26:59;;;;;;;15.95;9.57;;;;;;;15.41;46.67;100743.72;5023519;27;99535;-71
2022/04/22 08:29:25;;;;;;;16.30;9.02;;;;;;;15.71;46.61;100741.16;5024151;27;98975;-71
2022/04/22 08:31:52;;;;;;;16.83;9.85;;;;;;;15.26;47.78;100736.56;5025909;27;99023;-72
2022/04/22 08:34:19;;;;;;;17.67;10.07;;;;;;;15.04;48.35;100737.72;5026473;27;97257;-72
2022/04/22 08:36:47;;;;;;;20.00;10.18;;;;;;;14.85;48.58;100736.13;5027719;27;99208;-71
2022/04/22 08:39:15;;;;;;;23.65;11.02;;;;;;;14.98;48.37;100740.72;5026690;28;102263;-73
2022/04/22 08:41:42;;;;;;;19.00;11.20;;;;;;;15.06;48.16;100741.16;5024338;27;97284;-71
2022/04/22 08:44:13;;;;;;;18.52;10.45;;;;;;;14.89;48.63;100737.69;5020609;27;97226;-72
2022/04/22 08:52:10;;;;;;;15.65;10.43;;;;;;;15.76;46.87;100729.28;5026122;27;97257;-73
2022/04/22 08:54:43;;;;;;;17.05;9.57;;;;;;;15.32;47.60;100731.75;5024311;27;97534;-72
2022/04/22 08:57:11;;;;;;;17.90;10.43;;;;;;;15.98;46.39;100733.38;5025897;27;98936;-71
2022/04/22 08:59:37;;;;;;;21.83;11.05;;;;;;;15.93;46.41;100728.31;5028199;27;98675;-72
2022/04/22 09:02:04;;;;;;;16.83;10.38;;;;;;;16.11;45.99;100729.06;5021903;28;96749;-71
2022/04/22 09:04:30;;;;;;;17.30;10.45;;;;;;;15.72;46.88;100722.41;5022850;27;97053;-70
2022/04/22 09:07:00;;;;;;;17.70;10.00;;;;;;;16.19;46.02;100716.13;5025252;27;99111;-72
2022/04/22 09:09:26;;;;;;;17.80;10.55;;;;;;;16.73;44.51;100715.53;5024438;27;99746;-71
2022/04/22 09:11:54;;;;;;;17.83;10.38;;;;;;;17.25;43.48;100714.06;5024561;27;96865;-71
2022/04/22 09:14:24;;;;;;;15.35;9.68;;;;;;;16.87;44.21;100717.31;5025554;27;97184;-72
2022/04/22 09:16:51;;;;;;;17.42;10.07;;;;;;;16.09;46.18;100718.47;5016970;27;100037;-71
2022/04/22 09:19:18;;;;;;;17.38;10.77;;;;;;;16.15;46.44;100719.91;5030503;27;98094;-72
2022/04/22 09:21:56;;;;;;;18.65;10.20;;;;;;;15.11;48.54;100715.16;5021698;27;97288;-72
2022/04/22 09:24:22;;;;;;;15.05;9.80;;;;;;;15.32;49.05;100718.44;5022879;27;96825;-71
2022/04/22 09:27:05;;;;;;;18.02;9.82;;;;;;;14.86;50.53;100713.91;5018972;28;99208;-71
2022/04/22 09:29:58;;;;;;;19.33;10.32;;;;;;;14.84;50.53;100721.09;5020837;27;98787;-71
2022/04/22 09:32:26;;;;;;;22.38;10.20;;;;;;;15.51;49.09;100716.47;5027853;27;97452;-71
2022/04/22 09:34:56;;;;;;;16.20;10.27;;;;;;;15.63;49.34;100709.63;5020919;27;97417;-72
2022/04/22 09:42:54;;;;;;;19.33;9.90;;;;;;;16.37;47.57;100716.84;5023683;27;98830;-72
2022/04/22 09:45:21;;;;;;;19.63;10.63;;;;;;;16.33;47.43;100717.06;5025540;27;97285;-71
2022/04/22 09:47:59;;;;;;;16.52;10.20;;;;;;;16.60;47.37;100713.69;5027242;27;99731;-71
2022/04/22 09:50:43;;;;;;;20.48;11.77;;;;;;;16.91;47.05;100718.00;5009341;28;98363;-69
2022/04/22 09:53:12;;;;;;;19.58;11.75;;;;;;;16.00;49.99;100710.19;5026290;27;98707;-69
2022/04/22 09:55:49;;;;;;;26.17;12.15;;;;;;;16.21;50.71;100719.59;5023186;28;97278;-71
2022/04/22 09:58:25;;;;;;;18.73;12.32;;;;;;;16.01;52.56;100712.75;5022936;27;98201;-73
2022/04/22 10:00:59;;;;;;;20.60;14.13;;;;;;;16.33;51.67;100709.03;5020602;27;101581;-72
2022/04/22 10:03:31;;;;;;;20.65;12.68;;;;;;;17.14;48.99;100706.72;5021196;27;97203;-71
2022/04/22 10:05:58;;;;;;;23.35;13.95;;;;;;;16.88;50.24;100712.84;5023990;27;99128;-70
2022/04/22 10:08:25;;;;;;;23.63;13.80;;;;;;;17.18;50.61;100712.75;5022916;27;98880;-71
2022/04/22 10:10:53;;;;;;;20.60;13.63;;;;;;;17.88;47.81;100706.38;5022169;28;99018;-70
2022/04/22 10:13:25;;;;;;;21.23;14.45;;;;;;;16.80;50.98;100708.00;5028149;27;97225;-71
2022/04/22 10:15:53;;;;;;;23.50;15.45;;;;;;;15.81;52.07;100705.06;5021264;27;97828;-71
2022/04/22 10:18:21;;;;;;;31.58;16.60;;;;;;;16.05;50.91;100700.97;5021917;27;99344;-70
2022/04/22 10:20:49;;;;;;;22.75;16.55;;;;;;;16.08;51.93;100705.25;5026153;27;101896;-71
2022/04/22 10:23:15;;;;;;;24.00;16.00;;;;;;;16.26;51.20;100705.03;5024089;27;96793;-70
2022/04/22 10:25:42;;;;;;;24.17;16.25;;;;;;;16.44;50.80;100702.19;5022403;27;96923;-72
2022/04/22 10:28:11;;;;;;;21.73;15.02;;;;;;;16.94;50.31;100697.31;5021100;27;99115;-71
2022/04/22 10:30:40;;;;;;;24.00;14.85;;;;;;;16.57;50.89;100701.38;5027862;28;101231;-71
2022/04/22 10:33:09;;;;;;;29.55;16.88;;;;;;;16.32;51.32;100696.66;5023915;27;96833;-71
2022/04/22 10:35:40;;;;;;;25.25;16.33;;;;;;;16.74;50.90;100703.00;5026584;27;97371;-72
2022/04/22 10:38:10;;;;;;;19.92;15.18;;;;;;;16.47;51.19;100700.22;5020796;27;98875;-71
2022/04/22 10:40:37;;;;;;;20.80;15.77;;;;;;;16.87;49.97;100703.16;5023742;27;99645;-70
2022/04/22 10:43:05;;;;;;;20.75;15.13;;;;;;;17.20;49.41;100694.84;5020667;27;96718;-72
2022/04/22 10:48:21;;;;;;;29.05;15.98;;;;;;;17.34;48.89;100681.41;5021770;27;97232;-73
2022/04/22 10:50:57;;;;;;;22.02;15.63;;;;;;;16.22;51.46;100678.63;5023074;27;98836;-71
2022/04/22 10:53:25;;;;;;;25.48;16.50;;;;;;;15.93;52.29;100691.03;5026286;27;96816;-71
2022/04/22 10:55:52;;;;;;;25.45;16.08;;;;;;;16.23;52.05;100678.53;5025370;27;97339;-71
2022/04/22 10:58:24;;;;;;;25.02;15.73;;;;;;;16.46;51.39;100677.16;5025423;28;99246;-72
2022/04/22 11:00:52;;;;;;;21.88;16.05;;;;;;;16.52;51.19;100687.47;5024302;28;102053;-73
2022/04/22 11:03:38;;;;;;;20.98;15.60;;;;;;;16.96;50.21;100675.88;5026871;27;97407;-72
2022/04/22 11:06:08;;;;;;;27.38;17.10;;;;;;;17.03;49.84;100688.72;5024590;28;97185;-71
2022/04/22 11:08:37;;;;;;;24.38;15.48;;;;;;;15.67;52.61;100691.66;5029112;27;99147;-71
2022/04/22 11:11:15;;;;;;;24.73;16.75;;;;;;;15.82;52.92;100694.28;5026619;27;99398;-72
2022/04/22 11:13:45;;;;;;;21.02;16.38;;;;;;;16.08;52.21;100687.44;5028678;27;96839;-71
2022/04/22 11:16:26;;;;;;;26.08;16.27;;;;;;;16.19;51.21;100694.81;5030089;27;97492;-71
2022/04/22 11:19:36;;;;;;;24.00;17.25;;;;;;;16.11;51.75;100684.59;5024791;27;99038;-71
2022/04/22 11:22:07;;;;;;;23.55;16.65;;;;;;;15.51;52.67;100681.00;5026390;27;100590;-71
2022/04/22 11:24:34;;;;;;;24.30;17.20;;;;;;;15.53;53.19;100687.13;5019251;28;98020;-73
2022/04/22 11:27:04;;;;;;;28.35;17.33;;;;;;;15.88;52.56;100679.78;5024409;28;97136;-72
2022/04/22 11:29:31;;;;;;;26.80;17.58;;;;;;;15.92;51.95;100691.97;5025027;28;98737;-72
2022/04/22 11:32:05;;;;;;;25.38;17.88;;;;;;;16.46;50.76;100684.31;5030040;27;98929;-72
2022/04/22 11:35:04;;;;;;;27.92;18.23;;;;;;;15.74;52.49;100693.03;5023858;28;97181;-73
2022/04/22 11:37:33;;;;;;;26.33;18.35;;;;;;;16.40;51.32;100698.00;5018917;27;99205;-72
2022/04/22 11:40:00;;;;;;;29.75;20.63;;;;;;;16.31;51.33;100702.94;5023688;28;102464;-73
2022/04/22 11:42:28;;;;;;;28.70;19.75;;;;;;;15.16;53.99;100693.63;5020654;27;99019;-72
2022/04/22 11:45:05;;;;;;;27.90;21.17;;;;;;;15.19;54.26;100696.09;5025809;27;96929;-72
2022/04/22 11:47:31;;;;;;;32.67;20.70;;;;;;;15.76;52.67;100701.78;5022926;28;97356;-71
2022/04/22 11:49:59;;;;;;;28.73;20.67;;;;;;;16.37;51.05;100699.03;5029565;27;101003;-72
2022/04/22 11:52:27;;;;;;;31.23;22.17;;;;;;;16.20;51.37;100694.72;5027055;27;98997;-71
2022/04/22 11:54:59;;;;;;;35.83;22.27;;;;;;;16.32;51.08;100696.66;5024879;28;96728;-71
2022/04/22 11:57:26;;;;;;;31.73;23.35;;;;;;;16.18;51.46;100701.09;5024549;27;97788;-71
2022/04/22 12:08:10;;;;;;;33.00;23.20;;;;;;;16.52;51.12;100707.94;5016634;27;97288;-71
2022/04/22 12:10:38;;;;;;;35.13;23.85;;;;;;;16.13;51.81;100717.38;5028424;28;99735;-71
2022/04/22 12:13:06;;;;;;;34.38;24.83;;;;;;;15.41;54.01;100707.28;5020908;27;97754;-74
2022/04/22 12:15:42;;;;;;;39.97;24.77;;;;;;;15.34;54.59;100705.91;5022944;27;98451;-71
2022/04/22 12:18:09;;;;;;;35.50;24.90;;;;;;;14.56;57.35;100717.25;5023681;27;97574;-71
2022/04/22 12:20:36;;;;;;;33.33;24.10;;;;;;;14.89;56.57;100719.06;5031394;27;99117;-71